createdAt,value
2023-01-30T00:00:55.332Z,13.45
2023-01-30T00:03:22.831Z,12.65
2023-01-30T00:05:49.680Z,13.18
2023-01-30T00:08:16.871Z,12.63
2023-01-30T00:10:44.114Z,12.35
2023-01-30T00:13:11.498Z,12.93
2023-01-30T00:15:38.091Z,12.63
2023-01-30T00:18:04.799Z,13.68
2023-01-30T00:20:31.285Z,13.00
2023-01-30T00:23:01.034Z,12.93
2023-01-30T00:25:28.653Z,12.90
2023-01-30T00:27:56.551Z,13.85
2023-01-30T00:30:23.115Z,13.60
2023-01-30T00:32:54.576Z,14.10
2023-01-30T00:35:21.264Z,16.15
2023-01-30T00:37:47.733Z,14.73
2023-01-30T00:40:14.321Z,15.60
2023-01-30T00:42:59.173Z,15.15
2023-01-30T00:46:00.934Z,14.45
2023-01-30T00:48:28.007Z,15.73
2023-01-30T00:50:54.624Z,15.13
2023-01-30T00:53:21.171Z,14.95
2023-01-30T00:55:47.851Z,15.05
2023-01-30T00:58:14.347Z,15.35
2023-01-30T01:00:40.800Z,16.73
2023-01-30T01:03:07.404Z,15.75
2023-01-30T01:05:33.918Z,15.65
2023-01-30T01:08:00.538Z,15.15
2023-01-30T01:10:27.169Z,16.17
2023-01-30T01:12:53.630Z,15.73
2023-01-30T01:15:23.622Z,16.58
2023-01-30T01:17:50.361Z,15.35
2023-01-30T01:20:18.161Z,16.90
2023-01-30T01:22:44.995Z,16.65
2023-01-30T01:25:12.242Z,16.25
2023-01-30T01:27:38.813Z,15.98
2023-01-30T01:30:06.852Z,16.70
2023-01-30T01:32:33.394Z,17.90
2023-01-30T01:35:00.160Z,17.30
2023-01-30T01:37:26.671Z,16.58
2023-01-30T01:40:11.548Z,15.63
2023-01-30T01:42:38.868Z,17.75
2023-01-30T01:45:15.272Z,18.33
2023-01-30T01:47:45.345Z,17.75
2023-01-30T01:50:22.537Z,17.60
2023-01-30T01:52:52.207Z,16.17
2023-01-30T01:55:20.917Z,16.33
2023-01-30T01:57:52.817Z,16.20
2023-01-30T02:00:21.245Z,17.25
2023-01-30T02:02:58.039Z,17.58
2023-01-30T02:09:10.094Z,16.75
2023-01-30T02:11:39.480Z,18.10
2023-01-30T02:14:07.008Z,17.40
2023-01-30T02:16:33.530Z,18.10
2023-01-30T02:19:00.015Z,18.25
2023-01-30T02:22:03.813Z,18.17
2023-01-30T02:24:36.175Z,19.27
2023-01-30T02:27:28.482Z,19.63
2023-01-30T02:29:54.883Z,20.95
2023-01-30T02:32:45.970Z,19.55
2023-01-30T02:35:28.461Z,19.55
2023-01-30T02:38:19.482Z,18.83
2023-01-30T02:40:48.885Z,18.60
2023-01-30T02:43:21.591Z,18.77
2023-01-30T02:45:56.609Z,19.30
2023-01-30T02:48:29.526Z,20.60
2023-01-30T02:51:01.227Z,20.50
2023-01-30T02:53:33.603Z,21.35
2023-01-30T02:56:01.117Z,21.33
2023-01-30T02:58:33.338Z,21.02
2023-01-30T03:01:35.651Z,19.30
2023-01-30T03:04:18.449Z,21.90
2023-01-30T03:06:47.837Z,19.35
2023-01-30T03:09:51.699Z,19.73
2023-01-30T03:12:23.268Z,20.92
2023-01-30T03:15:08.473Z,22.05
2023-01-30T03:17:36.528Z,20.15
2023-01-30T03:20:03.566Z,20.80
2023-01-30T03:22:30.049Z,21.30
2023-01-30T03:24:57.020Z,20.30
2023-01-30T03:27:23.915Z,20.65
2023-01-30T03:29:50.599Z,20.75
2023-01-30T03:32:17.117Z,20.88
2023-01-30T03:34:43.591Z,20.33
2023-01-30T03:37:10.130Z,19.92
2023-01-30T03:39:36.969Z,19.98
2023-01-30T03:42:03.735Z,19.23
2023-01-30T03:44:30.203Z,20.17
2023-01-30T03:46:56.714Z,20.52
2023-01-30T03:49:23.310Z,20.35
2023-01-30T03:51:49.786Z,19.67
2023-01-30T03:54:16.293Z,20.63
2023-01-30T03:56:42.755Z,19.80
2023-01-30T03:59:09.338Z,19.58
2023-01-30T04:01:35.873Z,19.83
2023-01-30T04:04:02.580Z,20.73
2023-01-30T04:06:29.006Z,20.75
2023-01-30T04:08:55.474Z,18.95
2023-01-30T04:11:21.934Z,19.20
2023-01-30T04:13:48.360Z,18.75
2023-01-30T04:16:19.759Z,18.05
2023-01-30T04:18:46.231Z,18.42
2023-01-30T04:21:13.170Z,19.27
2023-01-30T04:23:40.509Z,18.90
2023-01-30T04:26:07.817Z,18.98
2023-01-30T04:28:34.550Z,19.10
2023-01-30T04:31:01.417Z,18.13
2023-01-30T04:33:27.983Z,18.77
2023-01-30T04:35:55.113Z,17.92
2023-01-30T04:38:22.758Z,18.13
2023-01-30T04:40:50.521Z,17.48
2023-01-30T04:43:17.615Z,16.60
2023-01-30T04:45:45.326Z,17.48
2023-01-30T04:48:12.449Z,17.83
2023-01-30T04:50:42.441Z,18.85
2023-01-30T04:53:09.538Z,18.45
2023-01-30T04:55:36.443Z,18.73
2023-01-30T04:58:03.463Z,18.45
2023-01-30T05:00:30.157Z,17.33
2023-01-30T05:02:56.851Z,18.08
2023-01-30T05:05:24.393Z,18.65
2023-01-30T05:07:50.972Z,18.85
2023-01-30T05:10:18.429Z,20.08
2023-01-30T05:12:45.538Z,19.80
2023-01-30T05:15:13.594Z,20.33
2023-01-30T05:17:41.970Z,20.38
2023-01-30T05:20:10.712Z,20.75
2023-01-30T05:22:37.212Z,20.95
2023-01-30T05:25:04.157Z,21.42
2023-01-30T05:27:30.626Z,21.88
2023-01-30T05:29:57.091Z,22.08
2023-01-30T05:32:23.562Z,23.08
2023-01-30T05:34:50.200Z,22.20
2023-01-30T05:37:16.691Z,22.85
2023-01-30T05:39:43.419Z,21.73
2023-01-30T05:42:09.898Z,22.83
2023-01-30T05:44:36.379Z,23.05
2023-01-30T05:47:02.983Z,22.70
2023-01-30T05:49:29.398Z,22.15
2023-01-30T05:51:56.065Z,23.85
2023-01-30T05:54:22.484Z,23.85
2023-01-30T05:56:51.679Z,22.88
2023-01-30T05:59:20.946Z,22.65
2023-01-30T06:01:47.529Z,24.30
2023-01-30T06:04:14.248Z,24.42
2023-01-30T06:06:40.756Z,23.15
2023-01-30T06:09:09.083Z,23.83
2023-01-30T06:11:35.510Z,24.48
2023-01-30T06:14:01.997Z,23.98
2023-01-30T06:16:28.614Z,23.90
2023-01-30T06:18:55.153Z,24.20
2023-01-30T06:21:21.691Z,23.90
2023-01-30T06:23:48.242Z,24.35
2023-01-30T06:26:14.753Z,24.40
2023-01-30T06:28:41.371Z,23.45
2023-01-30T06:31:08.652Z,23.73
2023-01-30T06:33:35.347Z,23.13
2023-01-30T06:36:01.912Z,23.05
2023-01-30T06:38:28.556Z,21.67
2023-01-30T06:40:54.995Z,21.10
2023-01-30T06:43:21.732Z,21.60
2023-01-30T06:45:48.228Z,20.77
2023-01-30T06:48:15.066Z,22.25
2023-01-30T06:50:41.841Z,22.33
2023-01-30T06:53:08.624Z,21.35
2023-01-30T06:55:36.059Z,22.33
2023-01-30T06:58:05.342Z,21.35
2023-01-30T07:00:32.110Z,19.90
2023-01-30T07:02:58.714Z,20.48
2023-01-30T07:05:25.727Z,20.33
2023-01-30T07:07:52.290Z,19.17
2023-01-30T07:10:18.912Z,19.48
2023-01-30T07:12:46.436Z,18.13
2023-01-30T07:15:13.326Z,18.17
2023-01-30T07:17:43.419Z,17.83
2023-01-30T07:20:11.649Z,17.67
2023-01-30T07:22:38.475Z,19.20
2023-01-30T07:25:05.772Z,18.48
2023-01-30T07:27:32.490Z,18.73
2023-01-30T07:29:59.002Z,16.52
2023-01-30T07:32:25.704Z,16.35
2023-01-30T07:34:52.242Z,17.33
2023-01-30T07:37:18.691Z,15.88
2023-01-30T07:39:45.165Z,15.65
2023-01-30T07:42:11.598Z,14.98
2023-01-30T07:44:38.202Z,13.88
2023-01-30T07:47:04.713Z,12.95
2023-01-30T07:49:31.252Z,12.23
2023-01-30T07:51:57.728Z,12.40
2023-01-30T07:54:24.199Z,12.50
2023-01-30T07:56:50.678Z,11.68
2023-01-30T07:59:17.164Z,11.90
2023-01-30T08:01:43.692Z,11.27
2023-01-30T08:04:10.155Z,10.73
2023-01-30T08:06:39.282Z,10.60
2023-01-30T08:09:06.739Z,11.00
2023-01-30T08:11:34.131Z,11.75
2023-01-30T08:14:00.704Z,10.55
2023-01-30T08:16:27.373Z,10.85
2023-01-30T08:18:53.883Z,11.10
2023-01-30T08:21:20.358Z,10.43
2023-01-30T08:23:46.793Z,10.40
2023-01-30T08:26:13.447Z,9.25
2023-01-30T08:28:40.768Z,10.65
2023-01-30T08:31:12.524Z,9.63
2023-01-30T08:33:39.179Z,10.48
2023-01-30T08:36:06.105Z,10.75
2023-01-30T08:38:32.676Z,8.70
2023-01-30T08:41:01.072Z,9.13
2023-01-30T08:43:31.289Z,7.63
2023-01-30T08:45:57.823Z,9.02
2023-01-30T08:48:24.664Z,7.15
2023-01-30T08:50:53.482Z,9.00
2023-01-30T08:53:20.573Z,8.48
2023-01-30T08:55:51.014Z,7.10
2023-01-30T08:58:17.620Z,6.78
2023-01-30T09:00:45.853Z,7.18
2023-01-30T09:03:14.743Z,8.05
2023-01-30T09:05:41.587Z,6.13
2023-01-30T09:08:08.111Z,5.28
2023-01-30T09:10:34.746Z,5.80
2023-01-30T09:13:01.566Z,5.28
2023-01-30T09:15:28.079Z,5.18
2023-01-30T09:17:54.700Z,4.88
2023-01-30T09:20:21.342Z,5.50
2023-01-30T09:22:47.982Z,5.22
2023-01-30T09:25:15.091Z,4.55
2023-01-30T09:27:44.520Z,4.65
2023-01-30T09:30:11.998Z,4.55
2023-01-30T09:32:38.515Z,4.90
2023-01-30T09:35:05.442Z,4.78
2023-01-30T09:37:31.908Z,4.45
2023-01-30T09:39:58.375Z,4.15
2023-01-30T09:42:24.779Z,4.55
2023-01-30T09:44:54.275Z,5.53
2023-01-30T09:47:23.387Z,4.25
2023-01-30T09:50:06.364Z,4.07
2023-01-30T09:52:45.092Z,3.47
2023-01-30T09:55:21.886Z,3.92
2023-01-30T09:57:49.447Z,3.03
2023-01-30T10:00:34.059Z,4.07
2023-01-30T10:03:12.789Z,2.85
2023-01-30T10:05:42.388Z,3.08
2023-01-30T10:08:21.009Z,2.65
2023-01-30T10:11:08.943Z,2.95
2023-01-30T10:13:46.016Z,3.00
2023-01-30T10:16:35.183Z,2.03
2023-01-30T10:19:35.948Z,3.17
2023-01-30T10:22:11.367Z,4.03
2023-01-30T10:24:59.493Z,2.70
2023-01-30T10:27:29.533Z,2.65
2023-01-30T10:30:00.011Z,3.05
2023-01-30T10:32:31.873Z,3.17
2023-01-30T10:35:05.319Z,2.92
2023-01-30T10:37:59.395Z,3.65
2023-01-30T10:40:35.835Z,3.17
2023-01-30T10:43:40.055Z,2.95
2023-01-30T10:46:50.149Z,3.05
2023-01-30T10:49:39.813Z,3.58
2023-01-30T10:52:34.369Z,2.88
2023-01-30T10:55:07.283Z,4.07
2023-01-30T10:58:05.577Z,3.30
2023-01-30T11:00:42.874Z,3.33
2023-01-30T11:03:30.904Z,3.10
2023-01-30T11:06:06.003Z,3.15
2023-01-30T11:08:35.754Z,3.05
2023-01-30T11:11:38.969Z,2.53
2023-01-30T11:14:08.091Z,4.00
2023-01-30T11:16:49.037Z,3.30
2023-01-30T11:19:21.613Z,3.85
2023-01-30T11:21:54.769Z,4.00
2023-01-30T11:24:24.396Z,3.67
2023-01-30T11:26:53.011Z,3.53
2023-01-30T11:29:33.549Z,4.20
2023-01-30T11:32:12.084Z,3.47
2023-01-30T11:34:41.520Z,3.47
2023-01-30T11:37:15.603Z,4.28
2023-01-30T11:39:52.148Z,3.95
2023-01-30T11:42:20.590Z,3.83
2023-01-30T11:47:29.275Z,3.50
2023-01-30T11:50:07.667Z,4.53
2023-01-30T11:52:44.064Z,3.60
2023-01-30T11:57:58.623Z,4.68
2023-01-30T12:00:38.347Z,3.95
2023-01-30T12:03:10.139Z,4.03
2023-01-30T12:08:31.135Z,3.22
2023-01-30T12:14:20.040Z,3.90
2023-01-30T12:17:11.809Z,3.80
2023-01-30T12:22:37.995Z,3.55
2023-01-30T12:25:14.049Z,4.05
2023-01-30T12:28:01.873Z,4.43
2023-01-30T12:30:42.171Z,4.05
2023-01-30T12:33:15.684Z,4.32
2023-01-30T12:38:48.076Z,5.37
2023-01-30T12:41:20.414Z,3.40
2023-01-30T12:44:18.629Z,3.55
2023-01-30T12:47:00.178Z,3.45
2023-01-30T12:55:54.323Z,2.92
2023-01-30T12:58:31.464Z,3.65
2023-01-30T13:01:16.151Z,2.67
2023-01-30T13:04:19.294Z,2.78
2023-01-30T13:15:53.179Z,2.42
2023-01-30T13:35:58.921Z,3.50
2023-01-30T13:44:40.849Z,4.18
2023-01-30T14:09:33.237Z,3.00
2023-01-30T14:12:03.884Z,2.35
2023-01-30T14:14:38.242Z,2.72
2023-01-30T14:17:16.584Z,3.28
2023-01-30T14:19:53.441Z,2.17
2023-01-30T14:22:28.252Z,2.00
2023-01-30T14:25:33.020Z,2.15
2023-01-30T14:27:59.569Z,1.00
2023-01-30T14:33:24.124Z,0.70
2023-01-30T14:35:54.162Z,0.75
2023-01-30T14:38:21.917Z,1.30
2023-01-30T14:40:58.699Z,0.55
2023-01-30T14:43:25.127Z,0.77
2023-01-30T14:45:51.607Z,0.52
2023-01-30T14:49:04.457Z,0.70
2023-01-30T14:51:44.247Z,0.60
2023-01-30T14:54:16.477Z,0.80
2023-01-30T14:57:02.595Z,1.40
2023-01-30T15:00:02.792Z,0.98
2023-01-30T15:02:44.331Z,0.95
2023-01-30T15:05:15.458Z,1.38
2023-01-30T15:08:25.421Z,1.23
2023-01-30T15:11:16.013Z,1.45
2023-01-30T15:14:02.123Z,1.58
2023-01-30T15:16:37.837Z,1.65
2023-01-30T15:19:15.189Z,1.40
2023-01-30T15:21:58.393Z,1.48
2023-01-30T15:27:31.727Z,1.63
2023-01-30T15:30:04.105Z,2.05
2023-01-30T15:32:32.459Z,2.00
2023-01-30T15:35:02.355Z,1.48
2023-01-30T15:37:47.907Z,1.88
2023-01-30T15:40:21.018Z,2.42
2023-01-30T15:45:40.500Z,3.13
2023-01-30T15:48:12.935Z,1.83
2023-01-30T15:50:39.709Z,2.28
2023-01-30T15:53:14.132Z,2.72
2023-01-30T15:55:42.917Z,2.35
2023-01-30T16:00:55.241Z,2.03
2023-01-30T16:03:25.378Z,2.05
2023-01-30T16:08:31.117Z,2.17
2023-01-30T16:10:57.972Z,2.55
2023-01-30T16:13:24.799Z,2.30
2023-01-30T16:16:00.407Z,3.17
2023-01-30T16:18:32.641Z,1.90
2023-01-30T16:21:04.245Z,3.20
2023-01-30T16:26:09.812Z,2.45
2023-01-30T16:28:36.527Z,2.75
2023-01-30T16:31:09.427Z,2.85
2023-01-30T16:33:36.601Z,2.78
2023-01-30T16:36:26.672Z,2.53
2023-01-30T16:38:55.064Z,3.00
2023-01-30T16:41:41.117Z,4.00
2023-01-30T16:44:18.848Z,2.70
2023-01-30T16:46:56.227Z,3.42
2023-01-30T16:49:25.300Z,3.00
2023-01-30T16:52:02.183Z,2.80
2023-01-30T16:54:31.286Z,2.80
2023-01-30T16:56:59.702Z,2.78
2023-01-30T16:59:34.405Z,4.22
2023-01-30T17:02:04.291Z,3.55
2023-01-30T17:04:33.826Z,3.72
2023-01-30T17:07:04.162Z,3.30
2023-01-30T17:09:47.212Z,4.43
2023-01-30T17:12:25.794Z,2.47
2023-01-30T17:15:13.493Z,3.03
2023-01-30T17:17:43.343Z,3.28
2023-01-30T17:20:11.590Z,3.25
2023-01-30T17:22:40.367Z,2.65
2023-01-30T17:25:17.484Z,3.05
2023-01-30T17:27:44.332Z,2.97
2023-01-30T17:30:19.702Z,4.05
2023-01-30T17:32:46.381Z,2.92
2023-01-30T17:35:12.971Z,3.17
2023-01-30T17:37:39.585Z,3.00
2023-01-30T17:40:17.064Z,3.33
2023-01-30T17:42:43.824Z,3.15
2023-01-30T17:45:11.054Z,4.13
2023-01-30T17:47:37.691Z,4.65
2023-01-30T17:50:05.051Z,3.83
2023-01-30T17:52:31.586Z,4.80
2023-01-30T17:54:58.372Z,5.28
2023-01-30T17:57:25.184Z,6.32
2023-01-30T17:59:51.700Z,3.72
2023-01-30T18:02:18.277Z,4.28
2023-01-30T18:04:44.878Z,4.95
2023-01-30T18:07:14.423Z,5.18
2023-01-30T18:09:40.928Z,5.03
2023-01-30T18:12:07.486Z,4.63
2023-01-30T18:14:34.091Z,4.25
2023-01-30T18:17:01.570Z,5.30
2023-01-30T18:19:29.071Z,5.68
2023-01-30T18:21:56.805Z,4.93
2023-01-30T18:24:23.362Z,4.53
2023-01-30T18:26:50.078Z,4.38
2023-01-30T18:29:16.696Z,4.70
2023-01-30T18:31:43.456Z,4.32
2023-01-30T18:34:11.277Z,5.50
2023-01-30T18:36:38.856Z,4.43
2023-01-30T18:39:05.862Z,4.95
2023-01-30T18:41:32.707Z,4.60
2023-01-30T18:44:01.277Z,4.40
2023-01-30T18:46:28.846Z,5.25
2023-01-30T18:48:56.400Z,4.63
2023-01-30T18:51:26.029Z,5.55
2023-01-30T18:53:54.321Z,5.22
2023-01-30T18:56:24.415Z,5.47
2023-01-30T18:58:52.409Z,4.82
2023-01-30T19:01:21.826Z,6.95
2023-01-30T19:03:49.221Z,5.20
2023-01-30T19:06:40.678Z,5.95
2023-01-30T19:09:08.803Z,5.20
2023-01-30T19:11:55.505Z,5.72
2023-01-30T19:14:21.943Z,4.30
2023-01-30T19:16:48.716Z,5.07
2023-01-30T19:19:15.236Z,5.50
2023-01-30T19:21:41.727Z,5.93
2023-01-30T19:26:56.398Z,5.85
2023-01-30T19:29:22.919Z,5.43
2023-01-30T19:31:50.058Z,4.80
2023-01-30T19:37:05.857Z,5.30
2023-01-30T19:39:32.316Z,5.10
2023-01-30T19:44:33.999Z,5.13
2023-01-30T19:47:00.766Z,5.68
2023-01-30T19:49:27.285Z,6.47
2023-01-30T19:51:53.765Z,7.07
2023-01-30T19:54:20.191Z,6.10
2023-01-30T19:56:48.393Z,5.90
2023-01-30T19:59:16.796Z,5.88
2023-01-30T20:04:36.591Z,5.95
2023-01-30T20:12:47.343Z,6.15
2023-01-30T20:40:14.803Z,4.88
2023-01-30T20:53:29.362Z,3.88
2023-01-30T21:17:36.106Z,3.70
2023-01-30T21:43:34.742Z,3.00
2023-01-30T21:46:01.397Z,3.50
2023-01-30T22:06:28.679Z,3.88
2023-01-30T22:17:28.765Z,3.45
2023-01-30T22:19:55.715Z,3.33
2023-01-30T22:43:02.945Z,3.80
2023-01-30T22:54:33.102Z,4.53
2023-01-30T22:59:55.697Z,4.15
2023-01-30T23:04:57.376Z,3.88
2023-01-30T23:13:07.372Z,4.30
2023-01-30T23:35:51.280Z,4.85
